createdAt,value
2022-12-12T00:01:27.531Z,7.13
2022-12-12T00:03:56.535Z,7.05
2022-12-12T00:06:25.566Z,6.10
2022-12-12T00:08:54.331Z,6.03
2022-12-12T00:11:23.394Z,6.10
2022-12-12T00:13:54.440Z,5.63
2022-12-12T00:16:23.764Z,6.30
2022-12-12T00:18:52.592Z,5.63
2022-12-12T00:21:22.554Z,5.60
2022-12-12T00:23:51.107Z,6.00
2022-12-12T00:26:22.105Z,5.13
2022-12-12T00:28:50.859Z,5.78
2022-12-12T00:31:20.702Z,6.18
2022-12-12T00:33:50.245Z,5.97
2022-12-12T00:36:21.514Z,6.05
2022-12-12T00:38:50.114Z,5.78
2022-12-12T00:41:18.413Z,5.20
2022-12-12T00:43:46.724Z,5.38
2022-12-12T00:46:15.547Z,6.00
2022-12-12T00:48:45.509Z,5.75
2022-12-12T00:51:18.263Z,6.32
2022-12-12T00:53:46.540Z,6.18
2022-12-12T00:56:16.622Z,7.47
2022-12-12T00:58:45.097Z,7.28
2022-12-12T01:01:15.469Z,7.05
2022-12-12T01:03:46.247Z,7.40
2022-12-12T01:06:15.711Z,7.05
2022-12-12T01:08:43.980Z,8.00
2022-12-12T01:11:14.302Z,8.82
2022-12-12T01:13:43.282Z,8.27
2022-12-12T01:16:12.636Z,9.00
2022-12-12T01:18:41.820Z,9.30
2022-12-12T01:21:12.924Z,8.88
2022-12-12T01:23:41.972Z,10.55
2022-12-12T01:26:13.895Z,10.00
2022-12-12T01:28:42.599Z,10.02
2022-12-12T01:31:11.362Z,10.25
2022-12-12T01:33:39.702Z,9.60
2022-12-12T01:36:08.359Z,9.25
2022-12-12T01:38:37.929Z,9.80
2022-12-12T01:41:06.415Z,9.50
2022-12-12T01:43:34.693Z,9.18
2022-12-12T01:46:41.316Z,10.10
2022-12-12T01:49:20.293Z,9.60
2022-12-12T01:51:51.267Z,8.38
2022-12-12T01:54:25.298Z,9.85
2022-12-12T01:56:54.559Z,8.75
2022-12-12T01:59:25.553Z,9.75
2022-12-12T02:01:55.472Z,11.93
2022-12-12T02:04:24.342Z,10.02
2022-12-12T02:06:54.067Z,10.10
2022-12-12T02:09:25.462Z,8.38
2022-12-12T02:11:55.495Z,10.27
2022-12-12T02:14:27.441Z,10.02
2022-12-12T02:17:23.008Z,9.98
2022-12-12T02:20:26.308Z,10.50
2022-12-12T02:23:14.327Z,9.35
2022-12-12T02:26:04.458Z,10.00
2022-12-12T02:28:56.861Z,8.32
2022-12-12T02:31:32.407Z,9.27
2022-12-12T02:34:05.317Z,10.10
2022-12-12T02:36:40.826Z,9.63
2022-12-12T02:39:18.444Z,9.52
2022-12-12T02:41:52.590Z,8.73
2022-12-12T02:44:28.544Z,9.43
2022-12-12T02:47:05.459Z,9.40
2022-12-12T02:49:38.175Z,9.35
2022-12-12T02:52:08.444Z,10.38
2022-12-12T02:54:36.851Z,8.85
2022-12-12T02:57:14.234Z,9.20
2022-12-12T02:59:47.197Z,9.88
2022-12-12T03:02:43.425Z,10.02
2022-12-12T03:05:54.169Z,10.02
2022-12-12T03:08:38.836Z,10.38
2022-12-12T03:11:09.771Z,9.73
2022-12-12T03:13:48.966Z,12.10
2022-12-12T03:16:27.429Z,9.30
2022-12-12T03:19:02.548Z,9.45
2022-12-12T03:21:38.766Z,10.10
2022-12-12T03:24:11.996Z,8.85
2022-12-12T03:26:48.122Z,10.45
2022-12-12T03:29:20.842Z,10.55
2022-12-12T03:31:56.413Z,10.70
2022-12-12T03:34:31.912Z,10.70
2022-12-12T03:37:07.577Z,10.93
2022-12-12T03:39:42.600Z,11.23
2022-12-12T03:42:16.817Z,10.70
2022-12-12T03:44:50.427Z,11.75
2022-12-12T03:47:24.767Z,11.93
2022-12-12T03:50:00.891Z,10.95
2022-12-12T03:52:35.000Z,11.10
2022-12-12T03:55:05.757Z,11.02
2022-12-12T03:57:38.266Z,10.27
2022-12-12T04:00:08.426Z,10.88
2022-12-12T04:02:52.124Z,9.80
2022-12-12T04:05:25.941Z,11.88
2022-12-12T04:07:59.904Z,11.80
2022-12-12T04:10:51.222Z,12.70
2022-12-12T04:13:32.435Z,11.90
2022-12-12T04:16:05.783Z,10.10
2022-12-12T04:18:46.030Z,12.68
2022-12-12T04:21:43.462Z,12.73
2022-12-12T04:24:21.530Z,13.68
2022-12-12T04:26:56.288Z,15.23
2022-12-12T04:29:36.228Z,12.60
2022-12-12T04:32:11.392Z,13.27
2022-12-12T04:34:45.724Z,11.70
2022-12-12T04:37:19.753Z,13.93
2022-12-12T04:39:51.558Z,13.20
2022-12-12T04:42:25.631Z,15.23
2022-12-12T04:44:57.183Z,14.02
2022-12-12T04:47:27.792Z,14.70
2022-12-12T04:49:59.015Z,13.00
2022-12-12T04:52:32.443Z,13.50
2022-12-12T04:55:06.402Z,13.18
2022-12-12T04:57:40.074Z,13.70
2022-12-12T05:00:10.241Z,15.90
2022-12-12T05:02:45.092Z,16.98
2022-12-12T05:05:19.323Z,15.73
2022-12-12T05:07:54.125Z,13.40
2022-12-12T05:10:22.543Z,14.85
2022-12-12T05:12:52.334Z,16.00
2022-12-12T05:15:21.737Z,16.38
2022-12-12T05:17:53.508Z,15.85
2022-12-12T05:20:21.750Z,15.13
2022-12-12T05:22:51.254Z,16.48
2022-12-12T05:25:19.562Z,16.75
2022-12-12T05:27:47.810Z,16.38
2022-12-12T05:30:16.138Z,16.15
2022-12-12T05:32:44.595Z,16.70
2022-12-12T05:35:13.333Z,16.63
2022-12-12T05:37:45.421Z,16.88
2022-12-12T05:40:18.037Z,17.58
2022-12-12T05:42:46.226Z,19.95
2022-12-12T05:45:14.680Z,18.10
2022-12-12T05:47:43.390Z,18.25
2022-12-12T05:50:11.821Z,17.55
2022-12-12T05:52:40.359Z,17.60
2022-12-12T05:55:09.419Z,17.33
2022-12-12T05:57:38.993Z,18.55
2022-12-12T06:00:09.817Z,18.20
2022-12-12T06:02:39.169Z,18.13
2022-12-12T06:05:07.942Z,19.85
2022-12-12T06:07:36.133Z,18.35
2022-12-12T06:10:05.211Z,19.38
2022-12-12T06:12:33.467Z,19.67
2022-12-12T06:15:03.003Z,20.98
2022-12-12T06:17:33.334Z,25.10
2022-12-12T06:20:02.151Z,30.42
2022-12-12T06:22:30.344Z,31.63
2022-12-12T06:24:58.552Z,31.92
2022-12-12T06:27:26.910Z,32.95
2022-12-12T06:29:55.085Z,32.10
2022-12-12T06:32:24.630Z,31.00
2022-12-12T06:34:52.849Z,32.53
2022-12-12T06:37:21.694Z,32.80
2022-12-12T06:39:50.004Z,30.80
2022-12-12T06:42:18.241Z,27.15
2022-12-12T06:44:46.544Z,26.15
2022-12-12T06:47:14.867Z,25.13
2022-12-12T06:49:44.426Z,22.73
2022-12-12T06:52:12.834Z,20.35
2022-12-12T06:54:41.179Z,21.38
2022-12-12T06:57:09.581Z,20.55
2022-12-12T06:59:37.905Z,19.33
2022-12-12T07:02:07.102Z,22.58
2022-12-12T07:04:35.336Z,22.95
2022-12-12T07:07:04.898Z,22.05
2022-12-12T07:09:33.071Z,24.00
2022-12-12T07:12:01.373Z,21.08
2022-12-12T07:14:29.539Z,24.58
2022-12-12T07:16:57.723Z,22.13
2022-12-12T07:19:26.411Z,24.77
2022-12-12T07:21:54.599Z,26.45
2022-12-12T07:24:24.274Z,27.15
2022-12-12T07:26:52.626Z,25.05
2022-12-12T07:29:21.221Z,21.95
2022-12-12T07:31:49.682Z,22.80
2022-12-12T07:34:17.898Z,26.15
2022-12-12T07:36:46.161Z,25.58
2022-12-12T07:39:20.461Z,25.63
2022-12-12T07:41:50.684Z,24.30
2022-12-12T07:44:22.592Z,25.27
2022-12-12T07:46:50.786Z,25.20
2022-12-12T07:49:19.082Z,26.80
2022-12-12T07:51:49.161Z,26.60
2022-12-12T07:54:17.989Z,22.40
2022-12-12T07:56:46.135Z,21.77
2022-12-12T07:59:15.790Z,20.95
2022-12-12T08:01:44.660Z,23.40
2022-12-12T08:04:12.993Z,23.90
2022-12-12T08:06:41.137Z,21.90
2022-12-12T08:09:09.323Z,18.67
2022-12-12T08:11:45.942Z,19.10
2022-12-12T08:14:16.299Z,19.05
2022-12-12T08:16:44.514Z,19.60
2022-12-12T08:19:12.971Z,19.30
2022-12-12T08:21:41.175Z,22.50
2022-12-12T08:24:11.698Z,23.52
2022-12-12T08:26:40.387Z,21.33
2022-12-12T08:29:08.875Z,20.70
2022-12-12T08:31:39.745Z,23.23
2022-12-12T08:34:08.279Z,22.35
2022-12-12T08:36:37.542Z,24.45
2022-12-12T08:39:09.007Z,24.05
2022-12-12T08:41:39.570Z,22.60
2022-12-12T08:44:08.156Z,23.48
2022-12-12T08:46:36.701Z,24.17
2022-12-12T08:49:06.642Z,22.27
2022-12-12T08:51:35.463Z,19.65
2022-12-12T08:54:03.816Z,18.90
2022-12-12T08:56:32.207Z,20.27
2022-12-12T08:59:00.404Z,19.30
2022-12-12T09:01:29.352Z,20.60
2022-12-12T09:03:58.973Z,21.10
2022-12-12T09:06:28.716Z,18.63
2022-12-12T09:08:58.092Z,20.88
2022-12-12T09:11:26.447Z,22.80
2022-12-12T09:13:54.673Z,23.08
2022-12-12T09:16:26.424Z,23.52
2022-12-12T09:18:54.754Z,22.75
2022-12-12T09:21:23.293Z,22.95
2022-12-12T09:23:52.937Z,22.98
2022-12-12T09:26:21.318Z,24.77
2022-12-12T09:28:50.744Z,21.40
2022-12-12T09:31:19.399Z,23.40
2022-12-12T09:33:47.917Z,20.70
2022-12-12T09:36:16.157Z,18.38
2022-12-12T09:38:44.759Z,18.77
2022-12-12T09:41:17.431Z,18.60
2022-12-12T09:43:54.651Z,18.50
2022-12-12T09:46:33.525Z,21.35
2022-12-12T09:49:19.251Z,21.33
2022-12-12T09:51:50.550Z,21.05
2022-12-12T09:54:21.510Z,19.52
2022-12-12T09:57:04.830Z,20.17
2022-12-12T09:59:41.715Z,19.75
2022-12-12T10:02:30.687Z,21.23
2022-12-12T10:05:03.783Z,24.20
2022-12-12T10:07:40.512Z,27.75
2022-12-12T10:10:19.511Z,28.23
2022-12-12T10:12:50.219Z,29.70
2022-12-12T10:15:29.003Z,30.67
2022-12-12T10:17:59.672Z,30.08
2022-12-12T10:20:30.832Z,31.15
2022-12-12T10:23:05.663Z,28.50
2022-12-12T10:25:42.197Z,31.27
2022-12-12T10:28:14.850Z,28.20
2022-12-12T10:30:57.583Z,29.63
2022-12-12T10:33:37.061Z,30.25
2022-12-12T10:36:15.924Z,31.80
2022-12-12T10:39:01.831Z,33.05
2022-12-12T10:41:40.177Z,34.75
2022-12-12T10:44:20.593Z,32.75
2022-12-12T10:46:57.060Z,32.00
2022-12-12T10:49:26.379Z,34.30
2022-12-12T10:51:56.807Z,31.10
2022-12-12T10:54:27.947Z,29.75
2022-12-12T10:57:07.988Z,30.92
2022-12-12T10:59:45.427Z,30.25
2022-12-12T11:02:27.675Z,29.75
2022-12-12T11:05:02.543Z,29.27
2022-12-12T11:07:31.056Z,29.92
2022-12-12T11:10:02.102Z,31.75
2022-12-12T11:12:35.114Z,31.30
2022-12-12T11:15:14.493Z,32.80
2022-12-12T11:17:42.914Z,29.27
2022-12-12T11:20:20.317Z,31.55
2022-12-12T11:22:53.588Z,32.25
2022-12-12T11:25:26.909Z,29.90
2022-12-12T11:27:56.559Z,30.35
2022-12-12T11:30:33.671Z,30.63
2022-12-12T11:33:04.419Z,30.35
2022-12-12T11:35:39.089Z,31.58
2022-12-12T11:38:19.579Z,31.30
2022-12-12T11:40:59.546Z,31.10
2022-12-12T11:43:29.585Z,32.05
2022-12-12T11:46:05.076Z,27.35
2022-12-12T11:48:40.605Z,27.77
2022-12-12T11:51:09.173Z,29.98
2022-12-12T11:53:40.379Z,31.33
2022-12-12T11:56:22.700Z,29.77
2022-12-12T11:59:00.752Z,31.92
2022-12-12T12:01:42.071Z,30.55
2022-12-12T12:04:24.841Z,31.55
2022-12-12T12:07:09.508Z,28.92
2022-12-12T12:09:47.249Z,30.60
2022-12-12T12:12:19.387Z,30.95
2022-12-12T12:15:01.079Z,29.95
2022-12-12T12:17:47.299Z,28.67
2022-12-12T12:20:25.051Z,25.73
2022-12-12T12:23:03.207Z,25.27
2022-12-12T12:25:51.545Z,26.67
2022-12-12T12:29:02.070Z,25.25
2022-12-12T12:31:43.826Z,26.40
2022-12-12T12:34:23.138Z,26.35
2022-12-12T12:37:07.096Z,26.70
2022-12-12T12:39:53.140Z,24.70
2022-12-12T12:42:37.124Z,25.98
2022-12-12T12:45:15.452Z,26.50
2022-12-12T12:47:52.312Z,25.60
2022-12-12T12:50:28.624Z,26.52
2022-12-12T12:53:01.931Z,27.60
2022-12-12T12:55:36.623Z,27.50
2022-12-12T12:58:11.070Z,28.42
2022-12-12T13:00:39.803Z,28.27
2022-12-12T13:03:15.005Z,24.17
2022-12-12T13:05:49.923Z,26.83
2022-12-12T13:08:26.603Z,30.23
2022-12-12T13:10:58.322Z,30.30
2022-12-12T13:13:30.763Z,29.75
2022-12-12T13:16:03.784Z,28.95
2022-12-12T13:18:45.196Z,28.70
2022-12-12T13:21:22.845Z,29.05
2022-12-12T13:23:57.739Z,28.02
2022-12-12T13:26:34.587Z,28.10
2022-12-12T13:29:06.684Z,26.95
2022-12-12T13:31:53.917Z,26.27
2022-12-12T13:34:26.774Z,27.95
2022-12-12T13:36:58.875Z,27.73
2022-12-12T13:39:30.663Z,28.35
2022-12-12T13:42:01.796Z,30.25
2022-12-12T13:44:39.832Z,35.15
2022-12-12T13:47:34.393Z,33.20
2022-12-12T13:50:07.704Z,33.03
2022-12-12T13:52:42.298Z,30.52
2022-12-12T13:55:22.963Z,29.13
2022-12-12T13:58:19.675Z,25.08
2022-12-12T14:00:48.714Z,26.58
2022-12-12T14:03:30.535Z,24.38
2022-12-12T14:06:11.723Z,25.65
2022-12-12T14:08:51.086Z,24.30
2022-12-12T14:11:31.157Z,25.05
2022-12-12T14:14:24.683Z,23.70
2022-12-12T14:16:55.502Z,23.08
2022-12-12T14:19:34.422Z,22.08
2022-12-12T14:22:02.848Z,20.60
2022-12-12T14:25:03.327Z,22.27
2022-12-12T14:28:15.776Z,20.67
2022-12-12T14:30:57.293Z,21.42
2022-12-12T14:34:00.805Z,19.63
2022-12-12T14:37:06.773Z,20.75
2022-12-12T14:40:12.131Z,20.25
2022-12-12T14:43:20.918Z,20.17
2022-12-12T14:45:41.215Z,19.30
2022-12-12T14:48:11.775Z,18.27
2022-12-12T14:50:41.285Z,18.75
2022-12-12T14:53:16.845Z,19.17
2022-12-12T14:55:50.658Z,16.58
2022-12-12T14:58:23.910Z,17.25
2022-12-12T15:00:56.317Z,18.50
2022-12-12T15:03:33.038Z,18.33
2022-12-12T15:06:30.392Z,16.73
2022-12-12T15:09:08.319Z,16.65
2022-12-12T15:11:36.786Z,15.73
2022-12-12T15:14:06.098Z,15.57
2022-12-12T15:16:47.994Z,14.98
2022-12-12T15:19:20.409Z,14.10
2022-12-12T15:21:49.575Z,17.25
2022-12-12T15:24:20.930Z,15.95
2022-12-12T15:26:51.145Z,16.77
2022-12-12T15:29:22.888Z,15.80
2022-12-12T15:31:58.766Z,14.88
2022-12-12T15:34:36.752Z,14.70
2022-12-12T15:37:22.706Z,13.05
2022-12-12T15:40:17.529Z,12.60
2022-12-12T15:42:48.718Z,13.02
2022-12-12T15:45:20.986Z,13.48
2022-12-12T15:47:53.027Z,13.63
2022-12-12T15:50:24.442Z,13.27
2022-12-12T15:53:02.496Z,12.15
2022-12-12T15:55:31.114Z,11.38
2022-12-12T15:58:00.567Z,11.40
2022-12-12T16:00:33.400Z,11.60
2022-12-12T16:03:06.457Z,11.07
2022-12-12T16:05:36.998Z,10.75
2022-12-12T16:08:37.476Z,10.98
2022-12-12T16:11:08.388Z,9.77
2022-12-12T16:13:39.300Z,9.38
2022-12-12T16:16:40.585Z,11.43
2022-12-12T16:19:26.950Z,11.15
2022-12-12T16:21:56.187Z,8.63
2022-12-12T16:24:26.291Z,8.80
2022-12-12T16:26:58.425Z,9.05
2022-12-12T16:29:26.615Z,9.32
2022-12-12T16:31:56.174Z,9.23
2022-12-12T16:34:25.762Z,9.05
2022-12-12T16:36:54.141Z,8.23
2022-12-12T16:39:23.673Z,8.65
2022-12-12T16:41:51.875Z,8.85
2022-12-12T16:44:20.059Z,9.40
2022-12-12T16:46:48.219Z,9.48
2022-12-12T16:49:16.449Z,10.18
2022-12-12T16:51:46.049Z,9.77
2022-12-12T16:54:17.907Z,9.40
2022-12-12T16:56:52.428Z,9.15
2022-12-12T16:59:20.702Z,13.40
2022-12-12T17:01:48.874Z,10.45
2022-12-12T17:04:22.363Z,7.20
2022-12-12T17:06:52.290Z,7.03
2022-12-12T17:09:23.287Z,7.82
2022-12-12T17:11:53.759Z,8.20
2022-12-12T17:14:24.742Z,7.15
2022-12-12T17:16:53.869Z,8.73
2022-12-12T17:19:22.169Z,8.55
2022-12-12T17:21:51.832Z,7.22
2022-12-12T17:24:20.573Z,7.85
2022-12-12T17:26:50.253Z,7.68
2022-12-12T17:29:18.444Z,6.03
2022-12-12T17:31:46.663Z,5.93
2022-12-12T17:34:14.993Z,7.75
2022-12-12T17:36:43.276Z,8.65
2022-12-12T17:39:13.056Z,6.72
2022-12-12T17:41:41.234Z,6.53
2022-12-12T17:44:09.423Z,15.65
2022-12-12T17:46:37.587Z,12.50
2022-12-12T17:49:05.958Z,4.95
2022-12-12T17:51:34.257Z,5.15
2022-12-12T17:54:02.524Z,5.78
2022-12-12T17:56:32.278Z,8.07
2022-12-12T17:59:00.537Z,10.75
2022-12-12T18:01:31.533Z,4.95
2022-12-12T18:04:00.655Z,6.85
2022-12-12T18:06:31.472Z,4.90
2022-12-12T18:09:00.754Z,4.68
2022-12-12T18:11:32.343Z,5.30
2022-12-12T18:14:02.809Z,5.93
2022-12-12T18:16:32.885Z,7.57
2022-12-12T18:19:01.754Z,6.40
2022-12-12T18:21:59.731Z,9.00
2022-12-12T18:24:22.441Z,8.77
2022-12-12T18:26:55.477Z,5.80
2022-12-12T18:29:24.092Z,5.63
2022-12-12T18:31:53.475Z,4.68
2022-12-12T18:34:21.751Z,5.28
2022-12-12T18:36:50.446Z,6.47
2022-12-12T18:39:18.955Z,5.82
2022-12-12T18:41:48.499Z,6.85
2022-12-12T18:44:18.061Z,4.70
2022-12-12T18:46:46.483Z,6.75
2022-12-12T18:49:16.142Z,6.97
2022-12-12T18:51:46.058Z,5.72
2022-12-12T18:54:16.518Z,5.53
2022-12-12T18:56:46.667Z,4.65
2022-12-12T18:59:15.874Z,5.43
2022-12-12T19:01:45.952Z,4.72
2022-12-12T19:04:21.163Z,4.40
2022-12-12T19:06:53.000Z,6.00
2022-12-12T19:09:22.331Z,5.22
2022-12-12T19:11:54.240Z,5.50
2022-12-12T19:14:35.697Z,7.35
2022-12-12T19:17:10.327Z,7.25
2022-12-12T19:19:38.535Z,8.75
2022-12-12T19:22:24.918Z,7.95
2022-12-12T19:24:55.057Z,8.52
2022-12-12T19:27:23.411Z,9.90
2022-12-12T19:29:51.626Z,10.35
2022-12-12T19:32:21.190Z,9.68
2022-12-12T19:34:49.383Z,12.77
2022-12-12T19:37:17.644Z,12.90
2022-12-12T19:39:45.834Z,13.02
2022-12-12T19:42:14.054Z,17.70
2022-12-12T19:44:43.730Z,17.02
2022-12-12T19:47:13.074Z,20.55
2022-12-12T19:49:42.673Z,20.73
2022-12-12T19:52:14.362Z,16.77
2022-12-12T19:54:42.921Z,17.80
2022-12-12T19:57:11.090Z,15.00
2022-12-12T19:59:39.315Z,15.18
2022-12-12T20:02:07.980Z,12.77
2022-12-12T20:04:36.270Z,9.50
2022-12-12T20:07:06.140Z,7.10
2022-12-12T20:09:36.724Z,7.68
2022-12-12T20:12:05.714Z,7.30
2022-12-12T20:14:35.463Z,8.20
2022-12-12T20:17:03.723Z,6.45
2022-12-12T20:19:32.307Z,8.40
2022-12-12T20:22:02.264Z,7.28
2022-12-12T20:24:33.948Z,7.88
2022-12-12T20:27:03.475Z,8.85
2022-12-12T20:29:32.323Z,11.63
2022-12-12T20:32:01.898Z,7.45
2022-12-12T20:34:30.399Z,6.93
2022-12-12T20:36:58.911Z,7.65
2022-12-12T20:39:27.185Z,6.72
2022-12-12T20:41:57.632Z,9.27
2022-12-12T20:44:26.108Z,7.75
2022-12-12T20:46:54.372Z,7.60
2022-12-12T20:49:24.837Z,7.90
2022-12-12T20:51:56.045Z,8.07
2022-12-12T20:54:26.250Z,9.93
2022-12-12T20:56:56.201Z,9.95
2022-12-12T20:59:24.704Z,8.57
2022-12-12T21:01:53.762Z,9.32
2022-12-12T21:04:22.720Z,7.95
2022-12-12T21:06:52.176Z,8.70
2022-12-12T21:09:25.624Z,8.88
2022-12-12T21:11:57.983Z,9.35
2022-12-12T21:14:30.869Z,8.55
2022-12-12T21:16:59.281Z,8.65
2022-12-12T21:19:27.631Z,8.57
2022-12-12T21:21:56.381Z,9.38
2022-12-12T21:24:24.622Z,9.00
2022-12-12T21:26:52.928Z,8.30
2022-12-12T21:29:22.530Z,9.48
2022-12-12T21:31:52.554Z,9.20
2022-12-12T21:34:21.813Z,8.43
2022-12-12T21:36:52.482Z,8.32
2022-12-12T21:39:22.060Z,8.07
2022-12-12T21:41:51.432Z,8.05
2022-12-12T21:44:20.853Z,7.70
2022-12-12T21:46:50.592Z,7.88
2022-12-12T21:49:26.661Z,7.80
2022-12-12T21:51:56.277Z,7.53
2022-12-12T21:54:24.628Z,7.55
2022-12-12T21:56:53.163Z,5.35
2022-12-12T21:59:21.385Z,7.38
2022-12-12T22:01:51.282Z,6.53
2022-12-12T22:04:19.447Z,6.93
2022-12-12T22:06:47.845Z,6.53
2022-12-12T22:09:16.244Z,7.68
2022-12-12T22:11:50.110Z,7.75
2022-12-12T22:14:21.961Z,6.90
2022-12-12T22:16:51.720Z,6.70
2022-12-12T22:19:19.953Z,6.90
2022-12-12T22:21:49.204Z,7.00
2022-12-12T22:24:17.775Z,7.30
2022-12-12T22:26:47.980Z,6.65
2022-12-12T22:29:19.360Z,6.82
2022-12-12T22:31:50.097Z,7.40
2022-12-12T22:34:21.785Z,7.30
2022-12-12T22:36:50.561Z,6.40
2022-12-12T22:39:20.682Z,7.13
2022-12-12T22:41:50.080Z,6.22
2022-12-12T22:44:20.157Z,8.15
2022-12-12T22:46:49.687Z,7.10
2022-12-12T22:49:22.394Z,7.90
2022-12-12T22:51:51.041Z,7.22
2022-12-12T22:54:19.719Z,6.20
2022-12-12T22:56:48.136Z,6.97
2022-12-12T22:59:16.298Z,6.65
2022-12-12T23:01:44.845Z,6.55
2022-12-12T23:04:14.277Z,6.55
2022-12-12T23:06:44.645Z,5.90
2022-12-12T23:09:15.619Z,6.70
2022-12-12T23:11:44.847Z,6.93
2022-12-12T23:14:15.508Z,6.30
2022-12-12T23:16:44.544Z,6.55
2022-12-12T23:19:15.037Z,7.05
2022-12-12T23:21:45.154Z,6.13
2022-12-12T23:24:13.852Z,5.90
2022-12-12T23:26:42.563Z,6.35
2022-12-12T23:29:16.321Z,7.40
2022-12-12T23:31:45.028Z,6.03
2022-12-12T23:34:17.696Z,6.00
2022-12-12T23:36:47.856Z,6.07
2022-12-12T23:39:17.107Z,5.47
2022-12-12T23:41:45.372Z,6.72
2022-12-12T23:44:15.043Z,6.38
2022-12-12T23:46:43.752Z,5.50
2022-12-12T23:49:16.251Z,6.55
2022-12-12T23:51:46.502Z,5.88
2022-12-12T23:54:17.800Z,6.78
2022-12-12T23:56:46.579Z,5.60
2022-12-12T23:59:17.887Z,6.55
